Monday, February 19, 2018, 4:56 AM EST
Back to Local

KWAL, Wallops Flight Fac Airport

Location: Wallops Island, VA, United States Lat: 37.933
Local Time: 4:56 AM EST ( 9:56 GMT) Lon: -75.467
Time Zone: US/Eastern Elev: 39 ft

Show me the last for .
Show Decoded

2018-02-19 03:54 METAR KWAL 190854Z AUTO 14004KT 10SM CLR 04/03 A3050 RMK AO2 SLP323 T00390028
                 58016 =
2018-02-19 02:54 METAR KWAL 190754Z AUTO 14005KT 10SM CLR 04/03 A3053 RMK AO2 SLP334 T00440028 =
2018-02-19 01:54 METAR KWAL 190654Z AUTO 13006KT 10SM CLR 04/02 A3053 RMK AO2 SLP336 T00390022 =
2018-02-19 00:54 METAR KWAL 190554Z AUTO 12004KT 10SM CLR 04/02 A3054 RMK AO2 SLP339 T00390022
                 10044 20011 50011 =
2018-02-18 23:54 METAR KWAL 190454Z AUTO 00000KT 10SM CLR 02/01 A3055 RMK AO2 SLP342 T00170006
                 401170011 =
2018-02-18 22:54 METAR KWAL 190354Z AUTO 00000KT 10SM CLR 01/00 A3054 RMK AO2 SLP337 T00110000 =
2018-02-18 21:54 METAR KWAL 190254Z AUTO 00000KT 10SM CLR 04/02 A3051 RMK AO2 SLP328 T00390017
                 50008 =
2018-02-18 20:54 METAR KWAL 190154Z AUTO 13004KT 10SM CLR 04/02 A3051 RMK AO2 SLP329 T00390017 =
2018-02-18 19:54 METAR KWAL 190054Z AUTO 13005KT 10SM CLR 04/01 A3050 RMK AO2 SLP324 T00390011 =
2018-02-18 18:54 METAR KWAL 182354Z AUTO 14004KT 10SM CLR 04/01 A3049 RMK AO2 SLP319 T00440011
                 10117 20039 51028 =
2018-02-18 17:54 METAR KWAL 182254Z AUTO 11005KT 10SM CLR 05/01 A3045 RMK AO2 SLP309 T00500011 =
2018-02-18 16:54 METAR KWAL 182154Z AUTO 08006KT 10SM CLR 08/02 A3044 RMK AO2 SLP303 T00830022 =
2018-02-18 15:54 METAR KWAL 182054Z AUTO 32006KT 10SM CLR 11/00 A3040 RMK AO2 SLP292 T01110000
                 55003 =
2018-02-18 14:54 METAR KWAL 181954Z AUTO VRB05KT 10SM CLR 11/00 A3040 RMK AO2 SLP292 T01110000 =
2018-02-18 13:54 METAR KWAL 181854Z AUTO 35007KT 10SM FEW042 12/01 A3041 RMK AO2 SLP294 T01170006
                 =
2018-02-18 12:54 METAR KWAL 181754Z AUTO 35010G17KT 10SM SCT042 11/00 A3041 RMK AO2 SLP294
                 T01060000 10106 20033 50013 =
2018-02-18 11:54 METAR KWAL 181654Z AUTO 30007KT 10SM SCT042 11/00 A3041 RMK AO2 SLP295 T01060000
                 =
2018-02-18 10:54 METAR KWAL 181554Z AUTO 36009KT 10SM BKN038 BKN045 09/02 A3041 RMK AO2 SLP295
                 T00940017 =
2018-02-18 09:54 METAR KWAL 181454Z AUTO 36009G15KT 10SM CLR 08/02 A3037 RMK AO2 SLP282 T00830017
                 52045 =
2018-02-18 08:54 METAR KWAL 181354Z AUTO 33009KT 10SM CLR 07/03 A3033 RMK AO2 SLP266 T00720033 =
2018-02-18 07:54 METAR KWAL 181254Z AUTO 00000KT 10SM CLR 05/03 A3029 RMK AO2 SLP252 T00500033 =
2018-02-18 06:54 METAR KWAL 181154Z AUTO 28004KT 10SM CLR 03/03 A3024 RMK AO2 SLP237 70053
                 T00330028 10044 20033 51048 =
2018-02-18 06:37 METAR KWAL 181137Z AUTO 29005KT 10SM SCT006 04/03 A3023 =
2018-02-18 05:54 METAR KWAL 181054Z AUTO 31006KT 10SM OVC006 04/03 A3019 RMK AO2 SLP221 T00390033
                 =

Support USWX by starting your Amazon purchase here.